Time,TemperatureF,DewpointF,PressureIn,WindDirection,WindDirectionDegrees,WindSpeedMPH,WindSpeedGustMPH,Humidity,HourlyPrecipIn,Conditions,Clouds,dailyrainin,SoftwareType,DateUTC
2013-01-30 00:00:00,57.2,54.6,29.42,SSW,203,7.0,15.0,91,0.00,,,0.50,Wunderground v.1.15,2013-01-30 05:00:00,
2013-01-30 00:05:00,57.5,54.6,29.42,SSW,209,8.0,15.0,90,0.00,,,0.50,Wunderground v.1.15,2013-01-30 05:05:00,
2013-01-30 00:10:00,57.7,54.5,29.41,SSW,213,8.0,9.0,89,0.00,,,0.00,Wunderground v.1.15,2013-01-30 05:10:00,
2013-01-30 00:20:00,58.3,55.1,29.40,South,182,8.0,8.0,89,0.00,,,0.00,Wunderground v.1.15,2013-01-30 05:20:00,
2013-01-30 00:25:00,58.5,55.3,29.40,SW,221,8.0,8.0,89,0.00,,,0.00,Wunderground v.1.15,2013-01-30 05:25:00,
2013-01-30 00:30:00,58.4,54.9,29.40,SSW,200,8.0,8.0,88,0.00,,,0.00,Wunderground v.1.15,2013-01-30 05:30:00,
2013-01-30 00:35:00,58.5,55.0,29.39,SW,231,8.0,8.0,88,0.00,,,0.00,Wunderground v.1.15,2013-01-30 05:35:00,
2013-01-30 00:45:00,58.7,55.2,29.38,SSW,212,8.0,9.0,88,0.00,,,0.00,Wunderground v.1.15,2013-01-30 05:45:00,
2013-01-30 00:55:00,58.9,55.0,29.37,SW,225,8.0,9.0,87,0.00,,,0.00,Wunderground v.1.15,2013-01-30 05:55:00,
2013-01-30 01:05:00,59.1,54.9,29.36,South,190,9.0,9.0,86,0.00,,,0.00,Wunderground v.1.15,2013-01-30 06:05:00,
2013-01-30 01:15:00,58.9,55.0,29.34,SW,220,7.0,8.0,87,0.00,,,0.00,Wunderground v.1.15,2013-01-30 06:15:00,
2013-01-30 01:25:00,59.2,54.7,29.33,South,188,7.0,10.0,85,0.00,,,0.00,Wunderground v.1.15,2013-01-30 06:25:00,
2013-01-30 01:35:00,59.0,54.5,29.32,South,179,7.0,7.0,85,0.00,,,0.00,Wunderground v.1.15,2013-01-30 06:35:00,
2013-01-30 01:40:00,58.9,54.4,29.31,SSW,194,8.0,8.0,85,0.00,,,0.00,Wunderground v.1.15,2013-01-30 06:40:00,
2013-01-30 01:50:00,58.4,53.9,29.32,SSW,196,8.0,8.0,85,0.00,,,0.00,Wunderground v.1.15,2013-01-30 06:50:00,
2013-01-30 02:00:00,58.0,53.8,29.31,SSW,194,7.0,13.0,86,0.00,,,0.00,Wunderground v.1.15,2013-01-30 07:00:00,
2013-01-30 02:05:00,58.1,53.6,29.30,SSW,202,7.0,13.0,85,0.00,,,0.00,Wunderground v.1.15,2013-01-30 07:05:00,
2013-01-30 02:15:00,58.3,53.5,29.29,SSW,200,8.0,9.0,84,0.00,,,0.00,Wunderground v.1.15,2013-01-30 07:15:00,
2013-01-30 02:25:00,57.6,53.1,29.29,South,188,7.0,10.0,85,0.00,,,0.00,Wunderground v.1.15,2013-01-30 07:25:00,
2013-01-30 02:30:00,57.3,52.8,29.28,South,174,7.0,7.0,85,0.00,,,0.00,Wunderground v.1.15,2013-01-30 07:30:00,
2013-01-30 02:35:00,57.2,53.0,29.28,SSE,152,8.0,8.0,86,0.00,,,0.00,Wunderground v.1.15,2013-01-30 07:35:00,
2013-01-30 02:45:00,57.0,52.9,29.28,SSW,205,6.0,7.0,86,0.00,,,0.00,Wunderground v.1.15,2013-01-30 07:45:00,
2013-01-30 02:50:00,56.8,52.7,29.29,SSW,207,5.0,7.0,86,0.00,,,0.00,Wunderground v.1.15,2013-01-30 07:50:00,
2013-01-30 02:55:00,56.8,52.7,29.29,South,176,6.0,15.0,86,0.00,,,0.00,Wunderground v.1.15,2013-01-30 07:55:00,
2013-01-30 03:05:00,56.8,52.7,29.27,SW,215,6.0,6.0,86,0.00,,,0.00,Wunderground v.1.15,2013-01-30 08:05:00,
2013-01-30 03:15:00,57.0,52.9,29.26,SW,227,6.0,6.0,86,0.00,,,0.00,Wunderground v.1.15,2013-01-30 08:15:00,
2013-01-30 03:25:00,57.2,52.7,29.26,South,177,6.0,11.0,85,0.00,,,0.00,Wunderground v.1.15,2013-01-30 08:25:00,
2013-01-30 03:30:00,57.4,52.9,29.25,SSW,207,6.0,6.0,85,0.00,,,0.00,Wunderground v.1.15,2013-01-30 08:30:00,
2013-01-30 03:40:00,57.5,53.0,29.25,South,186,5.0,5.0,85,0.00,,,0.00,Wunderground v.1.15,2013-01-30 08:40:00,
2013-01-30 03:45:00,57.6,53.1,29.25,SSW,203,5.0,7.0,85,0.00,,,0.00,Wunderground v.1.15,2013-01-30 08:45:00,
2013-01-30 03:55:00,58.0,53.5,29.24,SSW,193,5.0,11.0,85,0.00,,,0.00,Wunderground v.1.15,2013-01-30 08:55:00,
2013-01-30 04:05:00,58.4,53.6,29.23,SSW,194,6.0,6.0,84,0.00,,,0.00,Wunderground v.1.15,2013-01-30 09:05:00,
2013-01-30 04:15:00,58.7,53.9,29.22,South,190,6.0,8.0,84,0.00,,,0.00,Wunderground v.1.15,2013-01-30 09:15:00,
2013-01-30 04:25:00,59.2,54.0,29.21,South,184,6.0,8.0,83,0.00,,,0.00,Wunderground v.1.15,2013-01-30 09:25:00,
2013-01-30 04:35:00,59.4,54.2,29.21,South,191,6.0,7.0,83,0.00,,,0.00,Wunderground v.1.15,2013-01-30 09:35:00,
2013-01-30 04:45:00,59.6,54.1,29.21,South,177,6.0,6.0,82,0.00,,,0.00,Wunderground v.1.15,2013-01-30 09:45:00,
2013-01-30 04:50:00,59.7,54.2,29.20,South,175,5.0,5.0,82,0.00,,,0.00,Wunderground v.1.15,2013-01-30 09:50:00,
2013-01-30 04:55:00,59.8,54.3,29.20,SSE,168,5.0,10.0,82,0.00,,,0.00,Wunderground v.1.15,2013-01-30 09:55:00,
2013-01-30 05:05:00,60.0,54.2,29.19,SSE,167,5.0,10.0,81,0.00,,,0.00,Wunderground v.1.15,2013-01-30 10:05:00,
2013-01-30 05:15:00,60.0,54.2,29.19,South,189,6.0,7.0,81,0.00,,,0.00,Wunderground v.1.15,2013-01-30 10:15:00,
2013-01-30 05:20:00,59.9,54.1,29.18,SSW,192,5.0,8.0,81,0.00,,,0.00,Wunderground v.1.15,2013-01-30 10:20:00,
2013-01-30 05:30:00,60.1,53.9,29.17,South,190,6.0,6.0,80,0.00,,,0.00,Wunderground v.1.15,2013-01-30 10:30:00,
2013-01-30 05:40:00,60.5,54.0,29.16,SSE,159,7.0,8.0,79,0.00,,,0.00,Wunderground v.1.15,2013-01-30 10:40:00,
2013-01-30 05:50:00,60.7,53.4,29.15,SSE,153,6.0,7.0,77,0.00,,,0.00,Wunderground v.1.15,2013-01-30 10:50:00,
2013-01-30 06:00:00,61.0,53.4,29.14,South,180,7.0,7.0,76,0.00,,,0.00,Wunderground v.1.15,2013-01-30 11:00:00,
2013-01-30 06:05:00,61.2,53.6,29.14,South,183,7.0,7.0,76,0.00,,,0.00,Wunderground v.1.15,2013-01-30 11:05:00,
2013-01-30 06:15:00,61.6,53.6,29.13,SSW,211,7.0,9.0,75,0.00,,,0.00,Wunderground v.1.15,2013-01-30 11:15:00,
2013-01-30 06:25:00,62.0,53.6,29.13,SSW,205,9.0,11.0,74,0.00,,,0.00,Wunderground v.1.15,2013-01-30 11:25:00,
2013-01-30 06:30:00,62.2,53.8,29.13,South,179,9.0,9.0,74,0.00,,,0.00,Wunderground v.1.15,2013-01-30 11:30:00,
2013-01-30 06:40:00,62.3,53.5,29.13,SSE,164,9.0,9.0,73,0.00,,,0.00,Wunderground v.1.15,2013-01-30 11:40:00,
2013-01-30 06:50:00,62.2,53.4,29.12,SSW,212,8.0,8.0,73,0.00,,,0.00,Wunderground v.1.15,2013-01-30 11:50:00,
2013-01-30 07:00:00,61.9,53.5,29.12,SSW,200,7.0,11.0,74,0.00,,,0.00,Wunderground v.1.15,2013-01-30 12:00:00,
2013-01-30 07:05:00,61.8,53.4,29.11,SSW,199,7.0,11.0,74,0.00,,,0.00,Wunderground v.1.15,2013-01-30 12:05:00,
2013-01-30 07:15:00,61.7,53.3,29.11,South,188,7.0,10.0,74,0.00,,,0.00,Wunderground v.1.15,2013-01-30 12:15:00,
2013-01-30 07:25:00,61.6,53.2,29.11,South,174,7.0,8.0,74,0.00,,,0.00,Wunderground v.1.15,2013-01-30 12:25:00,
2013-01-30 07:35:00,61.6,53.6,29.11,SSW,213,7.0,7.0,75,0.00,,,0.00,Wunderground v.1.15,2013-01-30 12:35:00,
2013-01-30 07:45:00,61.8,53.4,29.10,South,184,7.0,7.0,74,0.00,,,0.00,Wunderground v.1.15,2013-01-30 12:45:00,
2013-01-30 07:55:00,61.7,53.7,29.10,SSW,205,6.0,12.0,75,0.00,,,0.00,Wunderground v.1.15,2013-01-30 12:55:00,
2013-01-30 08:00:00,61.9,53.9,29.09,SSW,209,6.0,12.0,75,0.00,,,0.00,Wunderground v.1.15,2013-01-30 13:00:00,
2013-01-30 08:05:00,62.1,53.7,29.09,South,171,6.0,12.0,74,0.00,,,0.00,Wunderground v.1.15,2013-01-30 13:05:00,
2013-01-30 08:15:00,62.5,54.1,29.09,South,179,5.0,6.0,74,0.00,,,0.00,Wunderground v.1.15,2013-01-30 13:15:00,
2013-01-30 08:20:00,62.9,54.5,29.09,South,186,5.0,8.0,74,0.00,,,0.00,Wunderground v.1.15,2013-01-30 13:20:00,
2013-01-30 08:30:00,65.3,55.7,29.08,SSW,205,9.0,9.0,71,0.00,,,0.00,Wunderground v.1.15,2013-01-30 13:30:00,
2013-01-30 08:40:00,66.9,56.0,29.08,WSW,240,11.0,11.0,68,0.00,,,0.00,Wunderground v.1.15,2013-01-30 13:40:00,
2013-01-30 08:45:00,67.0,55.7,29.07,SSW,207,11.0,11.0,67,0.00,,,0.00,Wunderground v.1.15,2013-01-30 13:45:00,
2013-01-30 08:55:00,67.1,55.8,29.06,SW,228,11.0,11.0,67,0.00,,,0.00,Wunderground v.1.15,2013-01-30 13:55:00,
2013-01-30 09:05:00,67.5,55.7,29.05,SSE,158,12.0,15.0,66,0.00,,,0.00,Wunderground v.1.15,2013-01-30 14:05:00,
2013-01-30 09:15:00,67.7,55.9,29.05,SW,217,12.0,15.0,66,0.00,,,0.00,Wunderground v.1.15,2013-01-30 14:15:00,
2013-01-30 09:20:00,68.0,56.2,29.05,SSW,206,12.0,12.0,66,0.00,,,0.00,Wunderground v.1.15,2013-01-30 14:20:00,
2013-01-30 09:30:00,68.3,56.5,29.04,WSW,238,12.0,12.0,66,0.00,,,0.00,Wunderground v.1.15,2013-01-30 14:30:00,
2013-01-30 09:40:00,68.2,56.4,29.04,SSW,213,12.0,16.0,66,0.00,,,0.00,Wunderground v.1.15,2013-01-30 14:40:00,
2013-01-30 09:50:00,68.0,57.0,29.05,SW,236,14.0,24.0,68,0.00,,,0.00,Wunderground v.1.15,2013-01-30 14:50:00,
2013-01-30 10:00:00,67.5,57.0,29.04,SSW,206,13.0,13.0,69,0.00,,,0.00,Wunderground v.1.15,2013-01-30 15:00:00,
2013-01-30 10:05:00,67.3,57.2,29.04,SSW,211,12.0,13.0,70,0.00,,,0.00,Wunderground v.1.15,2013-01-30 15:05:00,
2013-01-30 10:15:00,66.5,57.6,29.04,South,170,12.0,16.0,73,0.00,,,0.00,Wunderground v.1.15,2013-01-30 15:15:00,
2013-01-30 10:20:00,66.1,57.9,29.03,SW,215,12.0,12.0,75,0.00,,,0.01,Wunderground v.1.15,2013-01-30 15:20:00,
2013-01-30 10:30:00,64.7,58.0,29.03,SSW,201,10.0,10.0,79,0.00,,,0.01,Wunderground v.1.15,2013-01-30 15:30:00,
2013-01-30 10:40:00,63.6,58.3,29.04,SSW,197,9.0,10.0,83,0.00,,,0.02,Wunderground v.1.15,2013-01-30 15:40:00,
2013-01-30 10:45:00,63.0,58.1,29.03,SSW,213,9.0,10.0,84,0.22,,,0.04,Wunderground v.1.15,2013-01-30 15:45:00,
2013-01-30 10:50:00,62.4,58.2,29.03,South,177,9.0,9.0,86,0.09,,,0.04,Wunderground v.1.15,2013-01-30 15:50:00,
2013-01-30 11:00:00,61.6,58.0,29.07,West,265,7.0,24.0,88,0.04,,,0.05,Wunderground v.1.15,2013-01-30 16:00:00,
2013-01-30 11:05:00,61.3,58.0,29.08,WSW,256,7.0,24.0,89,0.12,,,0.06,Wunderground v.1.15,2013-01-30 16:05:00,
2013-01-30 11:15:00,60.8,57.2,29.07,SW,236,8.0,8.0,88,0.04,,,0.06,Wunderground v.1.15,2013-01-30 16:15:00,
2013-01-30 11:20:00,60.6,57.0,29.06,WSW,246,8.0,11.0,88,0.00,,,0.06,Wunderground v.1.15,2013-01-30 16:20:00,
2013-01-30 11:30:00,60.7,56.8,29.03,SW,229,12.0,12.0,87,0.00,,,0.06,Wunderground v.1.15,2013-01-30 16:30:00,
2013-01-30 11:40:00,61.1,56.9,29.03,SSW,209,13.0,15.0,86,0.00,,,0.07,Wunderground v.1.15,2013-01-30 16:40:00,
2013-01-30 11:50:00,60.8,56.9,29.04,WSW,241,12.0,12.0,87,0.00,,,0.07,Wunderground v.1.15,2013-01-30 16:50:00,
2013-01-30 12:00:00,60.8,57.2,29.04,SW,230,12.0,12.0,88,0.00,,,0.07,Wunderground v.1.15,2013-01-30 17:00:00,
2013-01-30 12:05:00,60.7,57.1,29.03,SW,228,12.0,12.0,88,0.00,,,0.07,Wunderground v.1.15,2013-01-30 17:05:00,
2013-01-30 12:15:00,60.4,57.1,29.01,SW,227,12.0,12.0,89,0.00,,,0.07,Wunderground v.1.15,2013-01-30 17:15:00,
2013-01-30 12:25:00,60.8,57.2,28.96,SW,214,12.0,21.0,88,0.00,,,0.07,Wunderground v.1.15,2013-01-30 17:25:00,
2013-01-30 12:35:00,61.6,57.4,28.98,SSW,199,14.0,16.0,86,0.00,,,0.07,Wunderground v.1.15,2013-01-30 17:35:00,
2013-01-30 12:45:00,62.8,57.9,28.98,SSW,213,12.0,17.0,84,0.00,,,0.07,Wunderground v.1.15,2013-01-30 17:45:00,
2013-01-30 12:55:00,63.3,57.7,28.97,WSW,238,13.0,13.0,82,0.00,,,0.07,Wunderground v.1.15,2013-01-30 17:55:00,
2013-01-30 13:00:00,63.7,57.8,28.95,SW,221,12.0,12.0,81,0.00,,,0.07,Wunderground v.1.15,2013-01-30 18:00:00,
2013-01-30 13:05:00,64.1,57.1,28.94,SW,216,10.0,14.0,78,0.00,,,0.07,Wunderground v.1.15,2013-01-30 18:05:00,
2013-01-30 13:15:00,64.6,56.9,28.97,WSW,238,11.0,12.0,76,0.00,,,0.07,Wunderground v.1.15,2013-01-30 18:15:00,
2013-01-30 13:20:00,64.7,57.0,28.98,SW,227,9.0,9.0,76,0.00,,,0.07,Wunderground v.1.15,2013-01-30 18:20:00,
2013-01-30 13:30:00,64.4,56.7,28.98,SSW,207,10.0,10.0,76,0.00,,,0.07,Wunderground v.1.15,2013-01-30 18:30:00,
2013-01-30 13:40:00,64.0,56.3,28.99,WSW,237,13.0,13.0,76,0.00,,,0.07,Wunderground v.1.15,2013-01-30 18:40:00,
2013-01-30 13:45:00,63.9,56.2,28.99,SW,215,12.0,13.0,76,0.00,,,0.07,Wunderground v.1.15,2013-01-30 18:45:00,
2013-01-30 13:55:00,64.0,55.9,28.97,SSW,210,11.0,23.0,75,0.00,,,0.07,Wunderground v.1.15,2013-01-30 18:55:00,
2013-01-30 14:05:00,64.3,55.8,28.95,SW,236,10.0,11.0,74,0.00,,,0.07,Wunderground v.1.15,2013-01-30 19:05:00,
2013-01-30 14:15:00,64.7,55.8,28.94,SSW,205,6.0,9.0,73,0.00,,,0.07,Wunderground v.1.15,2013-01-30 19:15:00,
2013-01-30 14:25:00,64.6,55.4,28.93,South,181,8.0,12.0,72,0.00,,,0.07,Wunderground v.1.15,2013-01-30 19:25:00,
2013-01-30 14:30:00,64.8,55.2,28.92,SSW,209,10.0,10.0,71,0.00,,,0.07,Wunderground v.1.15,2013-01-30 19:30:00,
2013-01-30 14:40:00,65.0,55.0,28.92,SSW,210,11.0,17.0,70,0.00,,,0.07,Wunderground v.1.15,2013-01-30 19:40:00,
2013-01-30 14:50:00,65.2,54.4,28.94,South,171,11.0,11.0,68,0.00,,,0.07,Wunderground v.1.15,2013-01-30 19:50:00,
2013-01-30 15:00:00,65.3,54.1,28.98,WNW,288,9.0,20.0,67,0.00,,,0.07,Wunderground v.1.15,2013-01-30 20:00:00,
2013-01-30 15:05:00,64.9,54.9,28.98,WNW,283,5.0,20.0,70,0.00,,,0.07,Wunderground v.1.15,2013-01-30 20:05:00,
2013-01-30 15:15:00,64.0,54.8,28.98,WNW,302,4.0,6.0,72,0.00,,,0.07,Wunderground v.1.15,2013-01-30 20:15:00,
2013-01-30 15:20:00,63.0,54.9,28.98,WNW,286,4.0,6.0,75,0.00,,,0.07,Wunderground v.1.15,2013-01-30 20:20:00,
2013-01-30 15:30:00,61.0,54.4,29.01,WNW,284,5.0,6.0,79,0.00,,,0.07,Wunderground v.1.15,2013-01-30 20:30:00,
2013-01-30 15:35:00,60.5,54.0,29.01,WNW,291,6.0,8.0,79,0.00,,,0.07,Wunderground v.1.15,2013-01-30 20:35:00,
2013-01-30 15:45:00,60.2,53.7,29.01,West,280,6.0,9.0,79,0.00,,,0.07,Wunderground v.1.15,2013-01-30 20:45:00,
2013-01-30 15:50:00,60.0,53.5,29.01,West,273,5.0,5.0,79,0.00,,,0.07,Wunderground v.1.15,2013-01-30 20:50:00,
2013-01-30 16:00:00,59.9,52.3,29.00,SW,232,5.0,5.0,76,0.00,,,0.07,Wunderground v.1.15,2013-01-30 21:00:00,
2013-01-30 16:05:00,59.8,52.2,29.00,WSW,252,3.0,5.0,76,0.00,,,0.07,Wunderground v.1.15,2013-01-30 21:05:00,
2013-01-30 16:15:00,59.6,52.0,29.00,SW,225,4.0,4.0,76,0.00,,,0.07,Wunderground v.1.15,2013-01-30 21:15:00,
2013-01-30 16:20:00,59.5,51.9,28.99,SW,215,4.0,8.0,76,0.00,,,0.07,Wunderground v.1.15,2013-01-30 21:20:00,
2013-01-30 16:30:00,59.1,51.9,29.00,WSW,244,4.0,4.0,77,0.00,,,0.07,Wunderground v.1.15,2013-01-30 21:30:00,
2013-01-30 16:40:00,58.8,51.6,28.99,South,190,3.0,3.0,77,0.00,,,0.07,Wunderground v.1.15,2013-01-30 21:40:00,
2013-01-30 16:50:00,58.6,51.8,29.00,SSW,211,3.0,4.0,78,0.00,,,0.07,Wunderground v.1.15,2013-01-30 21:50:00,
2013-01-30 16:55:00,58.4,51.9,29.00,SW,217,3.0,12.0,79,0.00,,,0.07,Wunderground v.1.15,2013-01-30 21:55:00,
2013-01-30 17:05:00,58.0,51.5,29.00,SW,223,2.0,12.0,79,0.00,,,0.07,Wunderground v.1.15,2013-01-30 22:05:00,
2013-01-30 17:15:00,57.7,51.6,29.00,SW,223,1.0,2.0,80,0.00,,,0.07,Wunderground v.1.15,2013-01-30 22:15:00,
2013-01-30 17:20:00,57.5,51.4,29.00,SW,223,1.0,1.0,80,0.00,,,0.07,Wunderground v.1.15,2013-01-30 22:20:00,
2013-01-30 17:30:00,57.1,51.3,29.00,SW,223,1.0,1.0,81,0.00,,,0.07,Wunderground v.1.15,2013-01-30 22:30:00,
2013-01-30 17:40:00,56.5,51.1,29.00,SW,223,1.0,1.0,82,0.00,,,0.07,Wunderground v.1.15,2013-01-30 22:40:00,
2013-01-30 17:50:00,56.0,50.6,29.00,SW,223,0.0,0.0,82,0.00,,,0.07,Wunderground v.1.15,2013-01-30 22:50:00,
2013-01-30 17:55:00,55.5,50.1,29.00,SW,223,0.0,6.0,82,0.00,,,0.07,Wunderground v.1.15,2013-01-30 22:55:00,
2013-01-30 18:05:00,55.0,50.6,28.99,SW,219,0.0,6.0,85,0.00,,,0.07,Wunderground v.1.15,2013-01-30 23:05:00,
2013-01-30 18:15:00,55.7,50.9,28.96,South,190,3.0,3.0,84,0.00,,,0.07,Wunderground v.1.15,2013-01-30 23:15:00,
2013-01-30 18:25:00,55.8,50.7,28.96,South,190,2.0,3.0,83,0.00,,,0.07,Wunderground v.1.15,2013-01-30 23:25:00,
2013-01-30 18:35:00,55.7,50.6,28.96,South,190,0.0,1.0,83,0.00,,,0.07,Wunderground v.1.15,2013-01-30 23:35:00,
2013-01-30 18:40:00,55.3,50.2,28.96,South,190,0.0,1.0,83,0.00,,,0.07,Wunderground v.1.15,2013-01-30 23:40:00,
2013-01-30 18:50:00,54.5,50.1,28.97,South,190,0.0,0.0,85,0.00,,,0.07,Wunderground v.1.15,2013-01-30 23:50:00,
2013-01-30 18:55:00,54.3,49.9,28.97,South,190,0.0,2.0,85,0.00,,,0.07,Wunderground v.1.15,2013-01-30 23:55:00,
2013-01-30 19:05:00,53.5,49.1,28.95,South,190,0.0,2.0,85,0.00,,,0.07,Wunderground v.1.15,2013-01-31 00:05:00,
2013-01-30 19:15:00,52.4,48.9,28.93,SE,145,2.0,2.0,88,0.00,,,0.07,Wunderground v.1.15,2013-01-31 00:15:00,
2013-01-30 19:25:00,52.1,49.0,28.95,SE,145,0.0,1.0,89,0.00,,,0.07,Wunderground v.1.15,2013-01-31 00:25:00,
2013-01-30 19:35:00,51.6,48.2,28.94,SE,145,0.0,1.0,88,0.00,,,0.07,Wunderground v.1.15,2013-01-31 00:35:00,
2013-01-30 19:40:00,51.2,48.1,28.94,SE,145,0.0,0.0,89,0.00,,,0.07,Wunderground v.1.15,2013-01-31 00:40:00,
2013-01-30 19:50:00,50.4,47.6,28.93,SE,145,0.0,0.0,90,0.00,,,0.07,Wunderground v.1.15,2013-01-31 00:50:00,
2013-01-30 20:00:00,50.3,47.8,28.93,SE,145,1.0,1.0,91,0.00,,,0.07,Wunderground v.1.15,2013-01-31 01:00:00,
2013-01-30 20:05:00,49.8,47.0,28.93,SE,145,1.0,1.0,90,0.00,,,0.07,Wunderground v.1.15,2013-01-31 01:05:00,
2013-01-30 20:15:00,49.7,47.5,28.92,SE,145,1.0,1.0,92,0.00,,,0.07,Wunderground v.1.15,2013-01-31 01:15:00,
2013-01-30 20:25:00,49.7,47.8,28.92,SE,145,1.0,2.0,93,0.00,,,0.07,Wunderground v.1.15,2013-01-31 01:25:00,
2013-01-30 20:35:00,50.7,49.0,28.92,SE,145,1.0,2.0,94,0.00,,,0.07,Wunderground v.1.15,2013-01-31 01:35:00,
2013-01-30 20:45:00,52.4,50.1,28.92,SSW,198,3.0,3.0,92,0.00,,,0.07,Wunderground v.1.15,2013-01-31 01:45:00,
2013-01-30 20:55:00,53.5,50.3,28.91,South,182,3.0,3.0,89,0.00,,,0.07,Wunderground v.1.15,2013-01-31 01:55:00,
2013-01-30 21:05:00,54.3,50.5,28.90,South,184,3.0,3.0,87,0.00,,,0.07,Wunderground v.1.15,2013-01-31 02:05:00,
2013-01-30 21:15:00,54.4,50.3,28.90,South,184,2.0,2.0,86,0.00,,,0.07,Wunderground v.1.15,2013-01-31 02:15:00,
2013-01-30 21:20:00,54.4,50.3,28.89,South,184,2.0,2.0,86,0.00,,,0.07,Wunderground v.1.15,2013-01-31 02:20:00,
2013-01-30 21:25:00,54.2,50.1,28.89,South,184,1.0,2.0,86,0.00,,,0.07,Wunderground v.1.15,2013-01-31 02:25:00,
2013-01-30 21:35:00,53.6,49.5,28.87,SSE,165,1.0,2.0,86,0.00,,,0.07,Wunderground v.1.15,2013-01-31 02:35:00,
2013-01-30 21:45:00,52.6,49.1,28.87,SSE,161,1.0,1.0,88,0.00,,,0.07,Wunderground v.1.15,2013-01-31 02:45:00,
2013-01-30 21:50:00,52.6,49.4,28.86,SSE,161,1.0,1.0,89,0.00,,,0.07,Wunderground v.1.15,2013-01-31 02:50:00,
2013-01-30 22:00:00,52.5,49.0,28.84,SSE,161,0.0,5.0,88,0.00,,,0.07,Wunderground v.1.15,2013-01-31 03:00:00,
2013-01-30 22:05:00,52.4,49.3,28.83,SSE,161,1.0,5.0,89,0.00,,,0.07,Wunderground v.1.15,2013-01-31 03:05:00,
2013-01-30 22:15:00,52.4,49.3,28.83,SSE,161,0.0,0.0,89,0.00,,,0.07,Wunderground v.1.15,2013-01-31 03:15:00,
2013-01-30 22:20:00,52.3,49.2,28.83,SSE,161,0.0,0.0,89,0.00,,,0.07,Wunderground v.1.15,2013-01-31 03:20:00,
2013-01-30 22:30:00,52.6,49.8,28.83,SSE,161,1.0,2.0,90,0.00,,,0.07,Wunderground v.1.15,2013-01-31 03:30:00,
2013-01-30 22:40:00,53.4,50.5,28.81,South,182,2.0,2.0,90,0.00,,,0.07,Wunderground v.1.15,2013-01-31 03:40:00,
2013-01-30 22:45:00,53.9,51.0,28.80,SE,142,1.0,5.0,90,0.00,,,0.08,Wunderground v.1.15,2013-01-31 03:45:00,
2013-01-30 22:50:00,54.6,52.0,28.80,South,175,3.0,6.0,91,0.08,,,0.08,Wunderground v.1.15,2013-01-31 03:50:00,
2013-01-30 23:00:00,55.3,52.7,28.80,SSW,196,6.0,11.0,91,0.08,,,0.10,Wunderground v.1.15,2013-01-31 04:00:00,
2013-01-30 23:05:00,55.4,53.1,28.81,SW,219,7.0,11.0,92,0.14,,,0.11,Wunderground v.1.15,2013-01-31 04:05:00,
2013-01-30 23:15:00,55.4,53.4,28.80,SSW,204,8.0,15.0,93,0.44,,,0.16,Wunderground v.1.15,2013-01-31 04:15:00,
2013-01-30 23:25:00,55.4,53.4,28.79,WSW,240,9.0,11.0,93,0.19,,,0.22,Wunderground v.1.15,2013-01-31 04:25:00,
2013-01-30 23:35:00,55.5,53.5,28.78,SW,215,9.0,11.0,93,0.08,,,0.23,Wunderground v.1.15,2013-01-31 04:35:00,
2013-01-30 23:45:00,55.2,53.5,28.76,West,264,4.0,6.0,94,0.07,,,0.24,Wunderground v.1.15,2013-01-31 04:45:00,
2013-01-30 23:50:00,55.1,53.4,28.76,West,263,3.0,3.0,94,0.04,,,0.24,Wunderground v.1.15,2013-01-31 04:50:00,